createdAt,value
2022-10-12T08:32:01.756Z,1.40
2022-10-12T08:35:03.577Z,1.80
2022-10-12T08:38:05.113Z,1.23
2022-10-12T08:41:21.291Z,1.35
2022-10-12T08:44:47.310Z,1.25
2022-10-12T08:47:53.642Z,1.40
2022-10-12T08:50:59.036Z,1.15
2022-10-12T08:54:07.445Z,1.20
2022-10-12T08:57:17.517Z,1.52
2022-10-12T09:00:19.201Z,1.23
2022-10-12T09:03:41.281Z,1.20
2022-10-12T09:07:04.645Z,1.33
2022-10-12T09:10:27.393Z,1.27
2022-10-12T09:13:53.648Z,1.00
2022-10-12T09:16:56.059Z,1.38
2022-10-12T09:20:07.152Z,1.25
2022-10-12T09:23:24.264Z,1.30
2022-10-12T09:26:38.004Z,1.05
2022-10-12T09:29:39.594Z,1.25
2022-10-12T09:32:56.330Z,1.42
2022-10-12T09:35:57.957Z,1.20
2022-10-12T09:39:02.139Z,1.52
2022-10-12T09:42:03.945Z,1.17
2022-10-12T09:45:11.566Z,1.30
2022-10-12T09:48:21.946Z,1.02
2022-10-12T09:51:24.106Z,1.23
2022-10-12T09:54:27.893Z,1.42
2022-10-12T09:57:33.727Z,1.23
2022-10-12T10:00:35.839Z,1.10
2022-10-12T10:03:37.387Z,0.90
2022-10-12T10:06:42.354Z,1.00
2022-10-12T10:09:44.138Z,1.05
2022-10-12T10:12:58.261Z,1.20
2022-10-12T10:16:11.924Z,1.15
2022-10-12T10:19:18.915Z,1.23
2022-10-12T10:22:21.758Z,1.13
2022-10-12T10:25:24.417Z,1.05
2022-10-12T10:28:30.381Z,1.17
2022-10-12T10:31:35.472Z,1.17
2022-10-12T10:34:37.428Z,1.02
2022-10-12T10:37:59.559Z,1.30
2022-10-12T10:41:06.320Z,1.48
2022-10-12T10:44:35.065Z,1.17
2022-10-12T10:47:46.244Z,1.00
2022-10-12T10:51:01.039Z,0.90
2022-10-12T10:54:24.624Z,1.15
2022-10-12T10:57:26.941Z,1.13
2022-10-12T11:00:39.085Z,1.00
2022-10-12T11:04:01.717Z,1.00
2022-10-12T11:07:30.008Z,1.23
2022-10-12T11:10:37.334Z,0.90
2022-10-12T11:13:43.900Z,1.02
2022-10-12T11:17:06.843Z,1.20
2022-10-12T11:20:17.361Z,1.27
2022-10-12T11:23:38.032Z,1.10
2022-10-12T11:26:46.270Z,1.15
2022-10-12T11:30:02.759Z,1.10
2022-10-12T11:33:19.447Z,1.00
2022-10-12T11:36:24.404Z,1.17
2022-10-12T11:39:25.836Z,1.02
2022-10-12T11:42:43.257Z,1.08
2022-10-12T11:45:49.537Z,1.20
2022-10-12T11:49:01.420Z,1.20
2022-10-12T11:52:09.284Z,1.23
2022-10-12T11:55:33.962Z,1.40
2022-10-12T11:58:59.929Z,1.63
2022-10-12T12:02:19.870Z,1.83
2022-10-12T12:05:21.407Z,2.20
2022-10-12T12:08:40.754Z,2.00
2022-10-12T12:11:42.252Z,2.20
2022-10-12T12:14:52.904Z,2.00
2022-10-12T12:18:10.434Z,2.42
2022-10-12T12:21:11.925Z,2.15
2022-10-12T12:24:16.845Z,2.13
2022-10-12T12:27:38.780Z,2.65
2022-10-12T12:30:40.656Z,2.80
2022-10-12T12:33:46.452Z,2.50
2022-10-12T12:36:50.971Z,2.80
2022-10-12T12:39:56.127Z,2.03
2022-10-12T12:43:21.185Z,3.53
2022-10-12T12:46:25.208Z,3.17
2022-10-12T12:49:46.964Z,3.13
2022-10-12T12:52:48.802Z,3.55
2022-10-12T12:56:12.994Z,3.80
2022-10-12T12:59:52.272Z,2.88
2022-10-12T13:03:12.524Z,3.20
2022-10-12T13:06:31.854Z,3.40
2022-10-12T13:09:47.124Z,3.67
2022-10-12T13:13:01.856Z,3.55
2022-10-12T13:17:31.411Z,3.65
2022-10-12T13:20:15.192Z,3.70
2022-10-12T17:04:01.749Z,2.53
2022-10-12T17:07:03.375Z,3.13
2022-10-12T17:10:05.357Z,2.53
2022-10-12T17:13:06.994Z,2.53
2022-10-12T17:16:27.593Z,2.88
2022-10-12T17:19:39.879Z,2.80
2022-10-12T17:22:41.416Z,2.53
2022-10-12T17:25:43.874Z,3.08
2022-10-12T17:28:45.378Z,3.15
2022-10-12T17:31:48.096Z,2.55
2022-10-12T17:34:49.658Z,2.58
2022-10-12T17:37:51.124Z,3.00
2022-10-12T17:40:52.572Z,2.83
2022-10-12T17:43:54.119Z,3.13
2022-10-12T17:46:55.653Z,2.53
2022-10-12T17:49:58.145Z,3.60
2022-10-12T17:52:59.621Z,3.03
2022-10-12T17:56:04.221Z,2.95
2022-10-12T17:59:05.810Z,3.20
2022-10-12T18:02:09.613Z,3.20
2022-10-12T18:05:11.563Z,3.78
2022-10-12T18:08:13.036Z,3.10
2022-10-12T18:11:16.021Z,3.25
2022-10-12T18:14:17.708Z,3.20
2022-10-12T18:17:19.246Z,3.45
2022-10-12T18:20:21.061Z,3.78
2022-10-12T18:23:22.531Z,3.75
2022-10-12T18:26:24.906Z,3.75
2022-10-12T18:29:26.496Z,3.40
2022-10-12T18:32:28.061Z,3.70
2022-10-12T22:11:10.341Z,3.25
2022-10-12T22:14:15.004Z,3.37
2022-10-12T22:17:16.448Z,3.92
2022-10-12T22:20:19.628Z,3.70
2022-10-12T22:23:27.029Z,4.00
2022-10-12T22:26:29.264Z,3.80
2022-10-12T22:29:32.383Z,3.42
2022-10-12T22:32:34.230Z,4.10
2022-10-12T22:35:35.730Z,4.13
2022-10-12T22:38:37.231Z,3.83
2022-10-12T22:41:39.173Z,3.67
2022-10-12T22:44:40.904Z,3.75
2022-10-12T22:47:42.453Z,4.03
2022-10-12T22:50:44.857Z,3.83
2022-10-12T22:53:46.835Z,4.10
2022-10-12T22:56:48.288Z,3.92
2022-10-12T22:59:50.318Z,4.30
2022-10-12T23:02:51.881Z,3.88
2022-10-12T23:05:53.353Z,3.80
2022-10-12T23:08:55.337Z,4.10
2022-10-12T23:11:56.805Z,3.92
2022-10-12T23:14:58.284Z,4.43
2022-10-12T23:17:59.878Z,4.25
2022-10-12T23:21:09.919Z,4.22
2022-10-12T23:24:11.413Z,3.97
2022-10-12T23:27:13.182Z,3.80
2022-10-12T23:30:14.915Z,3.60
2022-10-12T23:33:16.387Z,3.58
2022-10-12T23:36:17.989Z,4.10
2022-10-12T23:39:19.596Z,4.00
2022-10-12T23:42:21.261Z,3.55
